createdAt,value
2023-04-10T00:02:25.355Z,100167.98
2023-04-10T00:05:51.369Z,100176.55
2023-04-10T00:08:53.771Z,100178.91
2023-04-10T00:12:24.451Z,100178.57
2023-04-10T00:15:26.865Z,100181.67
2023-04-10T00:18:29.526Z,100187.23
2023-04-10T00:21:43.508Z,100188.39
2023-04-10T00:24:54.405Z,100186.27
2023-04-10T00:27:56.525Z,100183.28
2023-04-10T00:31:07.460Z,100181.77
2023-04-10T00:34:11.842Z,100179.77
2023-04-10T00:37:34.312Z,100178.48
2023-04-10T00:40:58.943Z,100175.31
2023-04-10T00:44:00.816Z,100177.19
2023-04-10T00:47:17.761Z,100176.66
2023-04-10T00:50:40.979Z,100178.72
2023-04-10T00:53:49.867Z,100175.91
2023-04-10T00:57:12.303Z,100176.74
2023-04-10T01:00:36.024Z,100170.02
2023-04-10T01:03:47.438Z,100163.83
2023-04-10T01:07:10.966Z,100162.11
2023-04-10T01:10:38.093Z,100158.85
2023-04-10T01:14:04.981Z,100155.09
2023-04-10T01:17:14.185Z,100157.23
2023-04-10T01:20:40.788Z,100159.52
2023-04-10T01:24:30.327Z,100160.20
2023-04-10T01:28:02.544Z,100161.96
2023-04-10T01:31:09.927Z,100163.03
2023-04-10T01:34:19.669Z,100160.30
2023-04-10T01:37:28.832Z,100160.96
2023-04-10T01:40:32.236Z,100159.70
2023-04-10T01:43:54.814Z,100152.67
2023-04-10T01:46:58.036Z,100156.44
2023-04-10T01:50:04.114Z,100159.86
2023-04-10T01:53:12.395Z,100152.14
2023-04-10T01:56:24.799Z,100144.44
2023-04-10T01:59:27.140Z,100146.67
2023-04-10T02:02:33.999Z,100145.17
2023-04-10T02:06:18.708Z,100152.20
2023-04-10T02:09:47.147Z,100154.75
2023-04-10T02:13:06.738Z,100153.02
2023-04-10T02:16:22.150Z,100155.55
2023-04-10T02:19:25.339Z,100159.79
2023-04-10T02:22:34.245Z,100159.42
2023-04-10T02:26:05.319Z,100160.24
2023-04-10T02:29:08.328Z,100156.24
2023-04-10T02:32:21.639Z,100156.55
2023-04-10T02:35:43.765Z,100157.53
2023-04-10T02:38:48.902Z,100158.86
2023-04-10T02:41:50.741Z,100163.61
2023-04-10T02:44:58.784Z,100159.11
2023-04-10T02:48:00.550Z,100161.30
2023-04-10T02:51:05.386Z,100160.23
2023-04-10T02:54:27.563Z,100153.16
2023-04-10T02:57:30.143Z,100144.54
2023-04-10T03:00:32.231Z,100145.88
2023-04-10T03:03:44.041Z,100143.80
2023-04-10T03:06:46.237Z,100146.50
2023-04-10T03:10:08.635Z,100152.98
2023-04-10T03:13:10.413Z,100151.91
2023-04-10T03:16:41.353Z,100154.27
2023-04-10T03:20:03.982Z,100150.13
2023-04-10T03:23:06.816Z,100147.51
2023-04-10T03:26:29.090Z,100144.73
2023-04-10T03:29:40.082Z,100143.50
2023-04-10T03:32:42.299Z,100147.08
2023-04-10T03:35:46.516Z,100140.52
2023-04-10T03:38:48.513Z,100143.42
2023-04-10T03:42:04.055Z,100140.15
2023-04-10T03:45:26.710Z,100142.88
2023-04-10T03:48:28.587Z,100145.77
2023-04-10T03:51:53.160Z,100144.38
2023-04-10T03:54:57.603Z,100149.36
2023-04-10T03:58:00.186Z,100151.06
2023-04-10T04:01:02.435Z,100154.14
2023-04-10T04:04:07.873Z,100152.78
2023-04-10T04:07:09.993Z,100150.84
2023-04-10T04:10:17.067Z,100149.14
2023-04-10T04:13:19.069Z,100153.52
2023-04-10T04:16:42.351Z,100159.69
2023-04-10T04:19:47.202Z,100162.56
2023-04-10T04:23:01.751Z,100166.32
2023-04-10T04:26:06.651Z,100169.90
2023-04-10T04:29:17.733Z,100171.07
2023-04-10T04:32:42.911Z,100173.42
2023-04-10T04:35:44.550Z,100177.84
2023-04-10T04:38:46.295Z,100178.99
2023-04-10T04:41:47.760Z,100178.11
2023-04-10T04:44:49.846Z,100183.73
2023-04-10T04:47:51.395Z,100187.05
2023-04-10T04:50:53.191Z,100185.86
2023-04-10T04:53:54.886Z,100183.02
2023-04-10T04:56:56.879Z,100182.59
2023-04-10T04:59:58.658Z,100188.39
2023-04-10T05:03:01.576Z,100186.27
2023-04-10T05:06:03.485Z,100190.69
2023-04-10T05:09:05.212Z,100191.70
2023-04-10T05:12:06.838Z,100193.40
2023-04-10T05:15:08.593Z,100189.48
2023-04-10T05:18:10.599Z,100191.38
2023-04-10T05:21:12.263Z,100194.84
2023-04-10T05:24:13.804Z,100195.34
2023-04-10T05:27:15.469Z,100198.38
2023-04-10T05:30:16.971Z,100196.81
2023-04-10T05:33:18.597Z,100194.55
2023-04-10T05:36:20.105Z,100194.68
2023-04-10T05:39:21.680Z,100200.80
2023-04-10T05:42:24.023Z,100204.86
2023-04-10T05:45:25.663Z,100203.11
2023-04-10T05:48:27.162Z,100200.32
2023-04-10T05:51:28.836Z,100200.94
2023-04-10T05:54:30.389Z,100205.55
2023-04-10T05:57:31.954Z,100209.64
2023-04-10T06:00:33.490Z,100213.86
2023-04-10T06:03:35.138Z,100211.22
2023-04-10T06:06:36.932Z,100210.31
2023-04-10T06:09:38.431Z,100214.06
2023-04-10T06:12:39.938Z,100215.41
2023-04-10T06:15:41.638Z,100219.46
2023-04-10T06:18:43.270Z,100220.61
2023-04-10T06:21:45.109Z,100220.05
2023-04-10T06:24:46.959Z,100220.36
2023-04-10T06:27:48.670Z,100216.36
2023-04-10T06:30:50.129Z,100218.73
2023-04-10T06:33:51.672Z,100218.20
2023-04-10T06:36:53.153Z,100215.95
2023-04-10T06:40:02.470Z,100217.27
2023-04-10T06:43:03.996Z,100216.05
2023-04-10T06:46:05.737Z,100208.96
2023-04-10T06:49:07.520Z,100207.04
2023-04-10T06:52:09.125Z,100211.00
2023-04-10T06:55:10.708Z,100216.98
2023-04-10T06:58:12.292Z,100212.44
2023-04-10T07:01:13.884Z,100214.39
2023-04-10T07:04:15.773Z,100209.47
2023-04-10T07:07:17.790Z,100206.73
2023-04-10T07:10:19.379Z,100208.63
2023-04-10T07:13:20.800Z,100214.09
2023-04-10T07:16:22.353Z,100216.49
2023-04-10T07:19:23.855Z,100218.85
2023-04-10T07:22:25.486Z,100218.98
2023-04-10T07:25:27.212Z,100215.95
2023-04-10T07:28:28.741Z,100216.13
2023-04-10T07:31:30.294Z,100215.02
2023-04-10T07:34:31.878Z,100211.11
2023-04-10T07:37:33.496Z,100219.39
2023-04-10T07:40:35.080Z,100222.36
2023-04-10T07:43:36.704Z,100221.99
2023-04-10T07:46:38.212Z,100224.69
2023-04-10T07:49:39.746Z,100224.54
2023-04-10T07:52:41.423Z,100226.57
2023-04-10T07:55:44.847Z,100223.54
2023-04-10T07:58:47.121Z,100221.55
2023-04-10T08:01:48.916Z,100221.20
2023-04-10T08:04:50.673Z,100221.79
2023-04-10T08:07:52.424Z,100222.28
2023-04-10T08:10:54.017Z,100224.29
2023-04-10T08:13:57.593Z,100220.79
2023-04-10T08:16:59.200Z,100221.20
2023-04-10T08:20:00.869Z,100223.73
2023-04-10T08:23:16.492Z,100220.63
2023-04-10T08:26:22.009Z,100221.79
2023-04-10T08:32:30.099Z,100213.02
2023-04-10T08:35:31.738Z,100214.02
2023-04-10T08:38:33.361Z,100206.73
2023-04-10T08:41:34.860Z,100207.29
2023-04-10T08:44:36.596Z,100210.15
2023-04-10T08:47:38.887Z,100208.66
2023-04-10T08:50:45.686Z,100207.98
2023-04-10T08:53:51.965Z,100213.58
2023-04-10T08:56:55.039Z,100215.46
2023-04-10T08:59:59.483Z,100211.75
2023-04-10T09:03:02.384Z,100217.67
2023-04-10T09:06:05.053Z,100214.41
2023-04-10T09:09:07.027Z,100207.70
2023-04-10T09:12:08.709Z,100209.33
2023-04-10T09:15:10.546Z,100207.61
2023-04-10T09:18:12.092Z,100204.23
2023-04-10T09:21:18.448Z,100203.22
2023-04-10T09:24:19.941Z,100206.47
2023-04-10T09:27:31.863Z,100199.61
2023-04-10T09:30:41.498Z,100198.78
2023-04-10T09:33:43.022Z,100193.61
2023-04-10T09:36:55.075Z,100192.27
2023-04-10T09:39:56.903Z,100194.34
2023-04-10T09:42:58.488Z,100188.45
2023-04-10T09:46:00.127Z,100186.42
2023-04-10T09:49:01.816Z,100184.15
2023-04-10T09:52:17.936Z,100187.45
2023-04-10T09:55:19.561Z,100176.64
2023-04-10T09:58:21.168Z,100170.65
2023-04-10T10:01:22.844Z,100167.31
2023-04-10T10:04:25.414Z,100170.06
2023-04-10T10:07:27.676Z,100169.77
2023-04-10T10:10:29.255Z,100167.86
2023-04-10T10:13:36.696Z,100162.54
2023-04-10T10:16:47.420Z,100162.78
2023-04-10T10:19:56.718Z,100156.17
2023-04-10T10:22:58.938Z,100157.55
2023-04-10T10:26:02.495Z,100152.66
2023-04-10T10:29:07.762Z,100152.87
2023-04-10T10:32:09.405Z,100151.66
2023-04-10T10:35:11.129Z,100146.45
2023-04-10T10:38:13.062Z,100139.56
2023-04-10T10:41:19.469Z,100139.38
2023-04-10T10:44:34.362Z,100137.62
2023-04-10T10:47:42.544Z,100131.77
2023-04-10T10:50:51.896Z,100123.60
2023-04-10T10:53:53.649Z,100118.02
2023-04-10T10:56:55.370Z,100117.73
2023-04-10T10:59:57.250Z,100114.69
2023-04-10T11:03:08.022Z,100118.98
2023-04-10T11:06:11.586Z,100111.91
2023-04-10T11:09:49.874Z,100110.93
2023-04-10T11:13:17.184Z,100100.72
2023-04-10T11:16:20.573Z,100099.05
2023-04-10T11:19:23.552Z,100096.39
2023-04-10T11:22:25.591Z,100097.42
2023-04-10T11:25:53.908Z,100094.35
2023-04-10T11:28:55.608Z,100081.74
2023-04-10T11:32:01.355Z,100084.70
2023-04-10T11:35:04.808Z,100077.64
2023-04-10T11:38:10.442Z,100076.58
2023-04-10T11:41:12.187Z,100067.63
2023-04-10T11:44:14.510Z,100066.10
2023-04-10T11:47:16.633Z,100057.56
2023-04-10T11:50:18.301Z,100051.77
2023-04-10T11:53:21.204Z,100046.44
2023-04-10T11:56:22.882Z,100046.92
2023-04-10T11:59:25.696Z,100043.13
2023-04-10T12:02:27.406Z,100039.19
2023-04-10T12:05:47.389Z,100031.17
2023-04-10T12:08:49.100Z,100023.96
2023-04-10T12:11:52.145Z,100021.16
2023-04-10T12:14:53.999Z,100019.84
2023-04-10T12:17:55.884Z,100021.55
2023-04-10T12:20:58.121Z,100016.21
2023-04-10T12:23:59.814Z,100006.23
2023-04-10T12:27:01.570Z,100001.92
2023-04-10T12:30:07.911Z,99997.48
2023-04-10T12:33:09.398Z,99989.52
2023-04-10T12:36:21.440Z,99982.21
2023-04-10T12:39:24.141Z,99976.19
2023-04-10T12:42:25.873Z,99966.96
2023-04-10T12:45:44.041Z,99959.02
2023-04-10T12:48:45.657Z,99953.86
2023-04-10T12:51:51.994Z,99948.53
2023-04-10T12:54:53.674Z,99948.35
2023-04-10T12:57:55.249Z,99944.48
2023-04-10T13:00:58.980Z,99942.84
2023-04-10T13:04:00.646Z,99934.57
2023-04-10T13:07:02.211Z,99925.77
2023-04-10T13:10:04.724Z,99920.77
2023-04-10T13:13:06.375Z,99915.43
2023-04-10T13:16:08.750Z,99913.59
2023-04-10T13:19:10.318Z,99910.73
2023-04-10T13:22:12.052Z,99908.36
2023-04-10T13:25:13.740Z,99909.05
2023-04-10T13:28:15.289Z,99907.52
2023-04-10T13:31:17.162Z,99903.73
2023-04-10T13:34:18.797Z,99895.02
2023-04-10T13:37:20.675Z,99890.00
2023-04-10T13:40:22.320Z,99889.66
2023-04-10T13:43:23.921Z,99888.52
2023-04-10T13:46:25.837Z,99878.95
2023-04-10T13:49:27.496Z,99873.21
2023-04-10T13:52:29.047Z,99868.75
2023-04-10T13:55:30.771Z,99864.53
2023-04-10T13:58:32.720Z,99860.73
2023-04-10T14:01:34.511Z,99860.38
2023-04-10T14:04:36.142Z,99854.50
2023-04-10T14:07:37.718Z,99845.21
2023-04-10T14:10:39.273Z,99840.20
2023-04-10T14:13:40.963Z,99832.00
2023-04-10T14:16:42.722Z,99823.34
2023-04-10T14:19:44.380Z,99822.54
2023-04-10T14:22:45.953Z,99828.57
2023-04-10T14:25:47.905Z,99825.36
2023-04-10T14:28:49.500Z,99823.48
2023-04-10T14:31:57.499Z,99823.04
2023-04-10T14:35:00.116Z,99823.08
2023-04-10T14:38:01.859Z,99825.59
2023-04-10T14:41:03.511Z,99829.44
2023-04-10T14:44:05.202Z,99831.13
2023-04-10T14:47:06.993Z,99829.37
2023-04-10T14:50:08.964Z,99832.11
2023-04-10T14:53:10.520Z,99834.14
2023-04-10T14:56:13.254Z,99837.17
2023-04-10T14:59:15.781Z,99855.18
2023-04-10T15:02:17.443Z,99854.36
2023-04-10T15:05:19.154Z,99856.49
2023-04-10T15:08:20.886Z,99850.89
2023-04-10T15:11:22.438Z,99852.77
2023-04-10T15:14:24.274Z,99846.69
2023-04-10T15:17:25.880Z,99839.46
2023-04-10T15:20:27.664Z,99839.92
2023-04-10T15:23:29.531Z,99842.17
2023-04-10T15:26:31.169Z,99841.77
2023-04-10T15:29:38.061Z,99838.84
2023-04-10T15:32:39.663Z,99836.59
2023-04-10T15:35:41.474Z,99835.02
2023-04-10T15:38:43.287Z,99833.16
2023-04-10T15:41:44.786Z,99831.15
2023-04-10T15:44:48.575Z,99832.44
2023-04-10T15:47:50.557Z,99832.48
2023-04-10T15:50:52.226Z,99826.31
2023-04-10T15:53:54.037Z,99830.32
2023-04-10T15:56:55.773Z,99829.50
2023-04-10T15:59:57.304Z,99827.64
2023-04-10T16:02:59.223Z,99825.89
2023-04-10T16:06:00.970Z,99828.95
2023-04-10T16:09:04.722Z,99819.38
2023-04-10T16:12:11.214Z,99818.84
2023-04-10T16:15:13.229Z,99823.54
2023-04-10T16:18:15.052Z,99820.38
2023-04-10T16:21:16.745Z,99813.67
2023-04-10T16:24:18.527Z,99816.63
2023-04-10T16:27:20.341Z,99815.95
2023-04-10T16:30:22.371Z,99813.80
2023-04-10T16:33:24.040Z,99803.08
2023-04-10T16:36:25.641Z,99797.02
2023-04-10T16:39:27.142Z,99800.64
2023-04-10T16:42:28.717Z,99810.54
2023-04-10T16:45:30.269Z,99813.63
2023-04-10T16:48:32.636Z,99804.77
2023-04-10T16:51:35.318Z,99802.91
2023-04-10T16:54:36.868Z,99798.98
2023-04-10T16:57:38.247Z,99805.50
2023-04-10T17:00:39.994Z,99849.39
2023-04-10T17:03:42.358Z,99873.73
2023-04-10T17:06:43.950Z,99881.98
2023-04-10T17:09:45.738Z,99891.27
2023-04-10T17:12:47.408Z,99906.33
2023-04-10T17:15:49.182Z,99932.41
2023-04-10T17:18:50.930Z,99940.43
2023-04-10T17:21:52.688Z,99933.23
2023-04-10T17:24:54.280Z,99925.32
2023-04-10T17:27:56.959Z,99916.09
2023-04-10T17:30:58.689Z,99908.41
2023-04-10T17:34:00.302Z,99900.02
2023-04-10T17:37:02.488Z,99898.73
2023-04-10T17:40:04.626Z,99900.42
2023-04-10T17:43:06.457Z,99891.71
2023-04-10T17:46:13.120Z,99885.03
2023-04-10T17:49:14.756Z,99879.11
2023-04-10T17:52:16.339Z,99871.95
2023-04-10T17:55:18.144Z,99863.46
2023-04-10T17:58:22.323Z,99860.63
2023-04-10T18:01:24.300Z,99862.85
2023-04-10T18:04:26.106Z,99866.96
2023-04-10T18:07:28.988Z,99875.55
2023-04-10T18:10:30.616Z,99871.27
2023-04-10T18:13:33.738Z,99875.45
2023-04-10T18:16:35.532Z,99877.31
2023-04-10T18:19:37.263Z,99880.85
2023-04-10T18:22:39.055Z,99883.96
2023-04-10T18:25:40.721Z,99891.34
2023-04-10T18:28:42.424Z,99889.13
2023-04-10T18:31:44.127Z,99885.73
2023-04-10T18:34:45.921Z,99879.54
2023-04-10T18:37:47.528Z,99873.70
2023-04-10T18:40:49.029Z,99874.04
2023-04-10T18:44:01.625Z,99872.14
2023-04-10T18:47:07.081Z,99870.94
2023-04-10T18:50:09.161Z,99867.83
2023-04-10T18:53:10.964Z,99867.95
2023-04-10T18:56:12.686Z,99869.38
2023-04-10T18:59:14.373Z,99866.89
2023-04-10T19:02:16.265Z,99865.45
2023-04-10T19:05:18.188Z,99865.17
2023-04-10T19:08:21.028Z,99863.52
2023-04-10T19:11:22.775Z,99862.05
2023-04-10T19:14:24.225Z,99857.86
2023-04-10T19:17:25.971Z,99862.28
2023-04-10T19:20:52.650Z,99858.17
2023-04-10T19:23:49.259Z,99854.53
2023-04-10T19:26:53.591Z,99849.98
2023-04-10T19:29:56.281Z,99846.54
2023-04-10T19:32:57.832Z,99843.47
2023-04-10T19:35:59.586Z,99848.14
2023-04-10T19:39:01.436Z,99847.87
2023-04-10T19:42:03.393Z,99851.92
2023-04-10T19:45:05.794Z,99852.09
2023-04-10T19:48:07.434Z,99851.52
2023-04-10T19:51:08.940Z,99849.27
2023-04-10T19:54:10.821Z,99842.73
2023-04-10T19:57:12.445Z,99832.02
2023-04-10T20:00:14.366Z,99816.16
2023-04-10T20:03:16.225Z,99818.95
2023-04-10T20:06:18.130Z,99820.83
2023-04-10T20:09:20.164Z,99821.79
2023-04-10T20:12:21.799Z,99818.01
2023-04-10T20:15:23.436Z,99814.32
2023-04-10T20:18:25.053Z,99815.09
2023-04-10T20:21:26.677Z,99811.50
2023-04-10T20:24:28.311Z,99800.92
2023-04-10T20:27:30.212Z,99796.73
2023-04-10T20:30:32.053Z,99796.06
2023-04-10T20:33:35.140Z,99800.14
2023-04-10T20:36:36.996Z,99794.52
2023-04-10T20:39:38.599Z,99795.34
2023-04-10T20:42:43.012Z,99790.04
2023-04-10T20:45:44.588Z,99788.16
2023-04-10T20:48:46.096Z,99785.98
2023-04-10T20:51:47.608Z,99778.47
2023-04-10T20:54:49.363Z,99776.61
2023-04-10T20:57:51.186Z,99775.15
2023-04-10T21:00:53.561Z,99770.61
2023-04-10T21:03:55.790Z,99770.08
2023-04-10T21:06:57.406Z,99769.95
2023-04-10T21:09:58.827Z,99766.13
2023-04-10T21:13:02.338Z,99760.08
2023-04-10T21:16:04.383Z,99756.35
2023-04-10T21:19:05.910Z,99757.14
2023-04-10T21:22:07.583Z,99753.61
2023-04-10T21:25:09.441Z,99749.59
2023-04-10T21:28:10.934Z,99742.70
2023-04-10T21:31:12.436Z,99735.77
2023-04-10T21:34:14.009Z,99735.98
2023-04-10T21:37:15.516Z,99735.70
2023-04-10T21:40:17.048Z,99745.00
2023-04-10T21:43:19.846Z,99752.08
2023-04-10T21:46:21.608Z,99759.72
2023-04-10T21:49:23.193Z,99754.67
2023-04-10T21:52:24.884Z,99755.23
2023-04-10T21:55:26.341Z,99753.55
2023-04-10T21:58:27.879Z,99751.66
2023-04-10T22:01:29.470Z,99745.17
2023-04-10T22:04:31.894Z,99736.87
2023-04-10T22:07:34.647Z,99736.52
2023-04-10T22:10:36.194Z,99734.67
2023-04-10T22:13:37.738Z,99727.60
2023-04-10T22:16:39.441Z,99727.52
2023-04-10T22:19:40.920Z,99722.73
2023-04-10T22:22:42.443Z,99717.17
2023-04-10T22:25:44.065Z,99714.57
2023-04-10T22:28:45.898Z,99718.90
2023-04-10T22:31:47.531Z,99717.21
2023-04-10T22:34:48.942Z,99715.02
2023-04-10T22:37:50.996Z,99709.77
2023-04-10T22:40:58.636Z,99702.34
2023-04-10T22:44:00.295Z,99697.20
2023-04-10T22:47:01.791Z,99691.83
2023-04-10T22:50:03.575Z,99694.50
2023-04-10T22:53:05.250Z,99697.02
2023-04-10T22:56:07.344Z,99699.35
2023-04-10T22:59:09.318Z,99693.52
2023-04-10T23:02:11.055Z,99687.14
2023-04-10T23:05:12.797Z,99690.78
2023-04-10T23:08:14.367Z,99690.77
2023-04-10T23:11:15.897Z,99689.55
2023-04-10T23:14:17.498Z,99685.73
2023-04-10T23:17:19.937Z,99684.60
2023-04-10T23:20:21.503Z,99687.83
2023-04-10T23:23:23.033Z,99686.28
2023-04-10T23:26:24.651Z,99683.56
2023-04-10T23:29:26.167Z,99680.09
2023-04-10T23:32:27.844Z,99679.73
2023-04-10T23:35:29.562Z,99675.16
2023-04-10T23:38:31.062Z,99673.70
2023-04-10T23:41:33.236Z,99669.61
2023-04-10T23:44:34.791Z,99660.30
2023-04-10T23:47:36.340Z,99655.58
2023-04-10T23:50:38.164Z,99651.89
2023-04-10T23:53:39.629Z,99647.20
2023-04-10T23:56:41.321Z,99634.98
2023-04-10T23:59:43.329Z,99628.36
